Alameda, NM

10:52 PM MDT on August 19, 2014 (GMT -0600)
Vista Casitas | Change Station
CLOSE
Current Station
Personal Weather Station
Location: Albuquerque, NM
Elevation: 5466 ft
Nearby Weather Stations

Elev 5466 ft 35.19 °N, 106.74 °W | Updated 2 minutes ago

Scattered Clouds
Scattered Clouds
71.1 °F
Feels Like 77 °F
N
3.0
Wind Variable Wind from South
Gusts 6.0 mph

Today
High -- | Low -- °F
--% Chance of Precip.
Yesterday
High -- | Low -- °F
Precip. -- in
6:29 AM 7:50 PM
Waning Crescent, 24% visible
Pressure 30.08 in
Visibility 10.0 miles
Clouds Scattered Clouds 8000 ft
Scattered Clouds 12000 ft
Heat Index 77 °F
Dew Point 52 °F
Humidity 51%
Rainfall 0.00 in
Snow Depth Not available.
UV 0 out of 12
Pollen 6.90 out of 12
Air Quality Not available.
Flu Activity Not available.
METAR KAEG 200435Z AUTO 17008KT 10SM SCT080 SCT120 20/10 A3008 RMK AO2 T01970100

More Conditions Fewer Conditions

Pressure 30.08 in
Visibility 10.0 miles
Clouds Scattered Clouds 8000 ft
Scattered Clouds 12000 ft
Heat Index 77 °F
Dew Point 52 °F
Humidity 51%
Rainfall 0.00 in
Snow Depth Not available.
UV 0 out of 12
Pollen 6.90 out of 12
Air Quality Not available.
Flu Activity Not available.
METAR KAEG 200435Z AUTO 17008KT 10SM SCT080 SCT120 20/10 A3008 RMK AO2 T01970100

More Conditions Fewer Conditions

Nowcast | as of 10:01 PM MDT on August 19, 2014

Showers will continue through late evening. Showers in northern Lincoln and eastern Torrance counties will move across Gran Quivira National Monument...Duran...Encino...Milagro...and Interstate 40 between mile marker 230 and mile marker 260. Showers along the Manzano Mountains will move toward Abo...Manzano Mountains State Park...Tajique...and Torreon. Expect occasional lightning and rainfall up to a tenth of an inch in heavier showers. Elsewhere... expect light rainfall of less than a tenth of an inch in scattered showers through late evening.

×

10-Day Weather Forecast

Almanac

Astronomy

Aug. 19, 2014 Rise Set
Actual Time 6:29 AM MDT 7:50 PM MDT
Civil Twilight 6:03 AM MDT 8:17 PM MDT
Nautical Twilight 5:31 AM MDT 8:49 PM MDT
Astronomical Twilight 4:58 AM MDT 9:22 PM MDT
Moon 1:27 AM MDT (8/19) 3:45 PM MDT (8/19)
Length of Visible Light 14h 14m
Length of Day
13h 20m
Tomorrow will be 1m 59s shorter.
Waning Crescent, 24% of the Moon is Illuminated
Aug 20
Waning Crescent
Aug 25
New
Sep 2
First Quarter
Sep 8
Full
Sep 15
Last Quarter

Yesterday's Extremes

State Highs State Lows

Community

WunderPhotos

Upload Photos

1,745,585 photos uploaded!

Nearby

Snow Depth

Station Depth Elevation
Quemazon 0 in 9500 ft
Senorita Divide #2 0 in 8600 ft
Wesner Springs 1 in 11120 ft
Bateman 0 in 9300 ft
Gallegos Peak 0 in 9800 ft

Earthquake Activity

City Distance Mag. Time & Date
No recent earthquake activity has been reported nearby.
Minimum magnitude displayed is 2.5.

Coastal Water Temperatures

Place Temperature
No Stations Reporting

Nearby Weather Stations